createdAt,value
2022-10-30T00:01:23.665Z,33.90
2022-10-30T00:03:52.074Z,37.80
2022-10-30T00:06:20.569Z,32.93
2022-10-30T00:08:48.908Z,54.97
2022-10-30T00:11:17.304Z,35.90
2022-10-30T00:13:46.124Z,41.67
2022-10-30T00:16:14.552Z,35.17
2022-10-30T00:18:44.008Z,42.53
2022-10-30T00:21:16.827Z,38.50
2022-10-30T00:23:53.625Z,50.70
2022-10-30T00:26:24.201Z,56.20
2022-10-30T00:28:54.692Z,61.63
2022-10-30T00:31:23.679Z,44.53
2022-10-30T00:33:53.884Z,30.10
2022-10-30T00:36:23.234Z,27.67
2022-10-30T00:38:51.690Z,31.60
2022-10-30T00:41:23.624Z,37.77
2022-10-30T00:43:52.847Z,24.77
2022-10-30T00:46:31.869Z,29.93
2022-10-30T00:49:11.769Z,27.73
2022-10-30T00:51:43.156Z,32.87
2022-10-30T00:54:11.692Z,27.47
2022-10-30T00:56:40.468Z,28.17
2022-10-30T00:59:13.807Z,24.23
2022-10-30T01:01:45.775Z,35.60
2022-10-30T01:04:16.371Z,30.93
2022-10-30T01:06:49.037Z,25.90
2022-10-30T01:09:17.685Z,37.80
2022-10-30T01:11:46.341Z,43.60
2022-10-30T01:14:18.096Z,33.20
2022-10-30T01:16:52.295Z,38.20
2022-10-30T01:19:31.105Z,41.80
2022-10-30T01:22:10.721Z,26.63
2022-10-30T01:24:57.313Z,45.57
2022-10-30T01:27:31.800Z,37.00
2022-10-30T01:30:12.588Z,36.03
2022-10-30T01:32:53.945Z,31.67
2022-10-30T01:35:34.536Z,47.23
2022-10-30T01:38:08.988Z,45.40
2022-10-30T01:40:38.774Z,80.93
2022-10-30T01:43:07.125Z,55.80
2022-10-30T01:45:41.569Z,43.10
2022-10-30T01:48:39.146Z,41.63
2022-10-30T01:51:17.887Z,38.67
2022-10-30T01:54:19.081Z,42.30
2022-10-30T01:57:14.629Z,42.60
2022-10-30T02:00:16.015Z,36.67
2022-10-30T02:02:45.037Z,46.17
2022-10-30T02:05:22.367Z,47.30
2022-10-30T02:07:50.744Z,35.37
2022-10-30T02:10:19.311Z,45.47
2022-10-30T02:12:48.216Z,29.33
2022-10-30T02:15:17.696Z,29.43
2022-10-30T02:17:46.432Z,41.90
2022-10-30T02:20:22.166Z,47.20
2022-10-30T02:22:53.133Z,50.83
2022-10-30T02:25:26.209Z,48.83
2022-10-30T02:27:54.675Z,33.67
2022-10-30T02:30:23.111Z,39.47
2022-10-30T02:32:51.565Z,29.90
2022-10-30T02:35:19.923Z,46.10
2022-10-30T02:37:50.136Z,54.00
2022-10-30T02:40:18.910Z,64.23
2022-10-30T02:42:52.593Z,65.60
2022-10-30T02:45:21.255Z,67.83
2022-10-30T02:47:49.766Z,79.83
2022-10-30T02:50:18.466Z,37.93
2022-10-30T02:52:47.187Z,61.57
2022-10-30T02:55:15.579Z,45.70
2022-10-30T02:57:44.036Z,40.27
2022-10-30T03:00:13.380Z,34.27
2022-10-30T03:02:41.840Z,29.90
2022-10-30T03:05:10.402Z,28.57
2022-10-30T03:07:38.818Z,28.93
2022-10-30T03:10:07.558Z,26.17
2022-10-30T03:12:35.900Z,27.77
2022-10-30T03:15:04.379Z,50.47
2022-10-30T03:17:32.838Z,47.33
2022-10-30T03:20:01.218Z,29.20
2022-10-30T03:22:30.736Z,26.50
2022-10-30T03:24:59.094Z,26.40
2022-10-30T03:27:27.450Z,24.37
2022-10-30T03:29:55.868Z,27.20
2022-10-30T03:34:53.424Z,28.60
2022-10-30T03:37:21.797Z,28.20
2022-10-30T03:39:50.134Z,45.30
2022-10-30T03:42:18.463Z,46.20
2022-10-30T03:44:46.849Z,34.20
2022-10-30T03:47:15.200Z,36.03
2022-10-30T03:49:43.545Z,35.07
2022-10-30T03:52:11.936Z,31.53
2022-10-30T03:54:40.277Z,53.97
2022-10-30T03:57:08.799Z,29.67
2022-10-30T03:59:37.259Z,27.50
2022-10-30T04:02:05.717Z,32.60
2022-10-30T04:04:34.171Z,33.80
2022-10-30T04:07:02.564Z,33.40
2022-10-30T04:09:30.917Z,38.60
2022-10-30T04:11:59.243Z,62.03
2022-10-30T04:14:27.627Z,56.90
2022-10-30T04:16:56.012Z,34.23
2022-10-30T04:19:24.411Z,43.43
2022-10-30T04:21:52.872Z,35.97
2022-10-30T04:24:21.268Z,30.30
2022-10-30T04:26:49.700Z,31.20
2022-10-30T04:29:18.148Z,39.60
2022-10-30T04:31:46.525Z,32.03
2022-10-30T04:34:14.865Z,35.70
2022-10-30T04:36:43.309Z,28.47
2022-10-30T04:39:11.848Z,28.60
2022-10-30T04:41:40.228Z,27.43
2022-10-30T04:44:08.621Z,27.43
2022-10-30T04:46:36.989Z,30.93
2022-10-30T04:49:05.373Z,40.67
2022-10-30T04:51:33.853Z,27.87
2022-10-30T04:54:02.495Z,28.60
2022-10-30T04:56:30.833Z,26.00
2022-10-30T04:58:59.215Z,25.00
2022-10-30T05:01:27.682Z,26.07
2022-10-30T05:03:56.153Z,25.40
2022-10-30T05:06:30.181Z,24.00
2022-10-30T05:08:59.239Z,48.83
2022-10-30T05:11:27.857Z,53.87
2022-10-30T05:13:57.011Z,38.07
2022-10-30T05:16:25.525Z,35.87
2022-10-30T05:18:54.073Z,31.80
2022-10-30T05:21:22.489Z,27.20
2022-10-30T05:23:50.878Z,26.67
2022-10-30T05:26:19.324Z,29.37
2022-10-30T05:28:48.365Z,29.83
2022-10-30T05:31:16.756Z,30.57
2022-10-30T05:33:45.194Z,27.43
2022-10-30T05:36:13.855Z,27.33
2022-10-30T05:38:42.256Z,33.93
2022-10-30T05:41:10.663Z,30.33
2022-10-30T05:43:39.199Z,29.50
2022-10-30T05:46:07.631Z,43.17
2022-10-30T05:48:36.175Z,41.77
2022-10-30T05:51:05.321Z,41.07
2022-10-30T05:53:33.857Z,50.90
2022-10-30T05:56:02.270Z,29.50
2022-10-30T05:58:30.739Z,30.17
2022-10-30T06:00:59.093Z,36.53
2022-10-30T06:03:27.469Z,45.00
2022-10-30T06:05:55.875Z,45.93
2022-10-30T06:08:24.236Z,32.03
2022-10-30T06:10:54.711Z,38.00
2022-10-30T06:13:23.603Z,38.63
2022-10-30T06:15:51.967Z,32.97
2022-10-30T06:18:20.324Z,42.97
2022-10-30T06:20:48.814Z,55.87
2022-10-30T06:23:17.287Z,65.33
2022-10-30T06:25:45.629Z,54.03
2022-10-30T06:28:15.021Z,37.90
2022-10-30T06:30:43.375Z,44.27
2022-10-30T06:33:12.173Z,35.07
2022-10-30T06:35:40.545Z,37.33
2022-10-30T06:38:10.843Z,38.37
2022-10-30T06:40:39.248Z,40.80
2022-10-30T06:43:07.688Z,38.00
2022-10-30T06:45:36.097Z,52.80
2022-10-30T06:48:04.588Z,49.70
2022-10-30T06:50:33.199Z,40.43
2022-10-30T06:53:01.543Z,43.43
2022-10-30T06:55:29.949Z,62.83
2022-10-30T06:57:59.212Z,58.00
2022-10-30T07:00:30.858Z,46.73
2022-10-30T07:03:03.293Z,47.97
2022-10-30T07:05:31.975Z,42.33
2022-10-30T07:08:00.534Z,41.60
2022-10-30T07:10:29.155Z,44.90
2022-10-30T07:12:59.702Z,44.90
2022-10-30T07:15:29.056Z,38.13
2022-10-30T07:18:04.541Z,43.03
2022-10-30T07:20:35.366Z,44.40
2022-10-30T07:23:04.605Z,38.37
2022-10-30T07:25:33.270Z,38.93
2022-10-30T07:28:02.712Z,36.13
2022-10-30T07:30:31.349Z,38.17
2022-10-30T07:33:04.893Z,38.50
2022-10-30T07:35:35.934Z,57.03
2022-10-30T07:38:11.009Z,37.23
2022-10-30T07:40:39.575Z,42.40
2022-10-30T07:43:08.026Z,58.17
2022-10-30T07:45:36.482Z,57.13
2022-10-30T07:48:04.954Z,45.63
2022-10-30T07:50:33.731Z,49.17
2022-10-30T07:53:02.344Z,38.60
2022-10-30T07:55:30.773Z,41.40
2022-10-30T07:57:59.492Z,37.87
2022-10-30T08:00:28.290Z,66.17
2022-10-30T08:03:00.071Z,56.00
2022-10-30T08:05:29.941Z,64.27
2022-10-30T08:07:59.786Z,38.53
2022-10-30T08:10:28.811Z,47.30
2022-10-30T08:12:57.377Z,37.33
2022-10-30T08:15:26.096Z,35.50
2022-10-30T08:17:54.562Z,37.80
2022-10-30T08:20:24.904Z,43.77
2022-10-30T08:22:55.608Z,36.53
2022-10-30T08:25:29.665Z,33.13
2022-10-30T08:28:03.387Z,34.70
2022-10-30T08:30:35.192Z,33.33
2022-10-30T08:33:06.200Z,32.37
2022-10-30T08:38:07.928Z,32.20
2022-10-30T08:40:36.337Z,34.27
2022-10-30T08:43:04.811Z,40.20
2022-10-30T08:45:33.220Z,40.07
2022-10-30T08:48:04.186Z,29.73
2022-10-30T08:50:34.296Z,29.30
2022-10-30T08:53:11.239Z,40.90
2022-10-30T08:55:39.783Z,34.40
2022-10-30T08:58:08.166Z,31.97
2022-10-30T09:00:36.632Z,39.70
2022-10-30T09:03:05.227Z,58.43
2022-10-30T09:05:33.680Z,79.20
2022-10-30T09:08:02.462Z,49.13
2022-10-30T09:10:31.633Z,63.23
2022-10-30T09:13:02.658Z,53.63
2022-10-30T09:15:31.419Z,39.73
2022-10-30T09:18:04.565Z,32.87
2022-10-30T09:20:33.027Z,75.57
2022-10-30T09:23:01.845Z,36.20
2022-10-30T09:25:30.547Z,48.73
2022-10-30T09:27:58.947Z,31.83
2022-10-30T09:30:27.376Z,60.40
2022-10-30T09:33:00.023Z,67.73
2022-10-30T09:35:28.907Z,37.70
2022-10-30T09:37:58.160Z,44.13
2022-10-30T09:40:48.303Z,61.80
2022-10-30T09:43:36.970Z,39.33
2022-10-30T09:46:26.930Z,32.40
2022-10-30T09:49:16.280Z,39.53
2022-10-30T09:52:09.625Z,46.37
2022-10-30T09:54:53.197Z,48.03
2022-10-30T09:57:33.837Z,39.67
2022-10-30T10:00:16.182Z,52.20
2022-10-30T10:03:13.743Z,33.80
2022-10-30T10:05:51.145Z,36.17
2022-10-30T10:08:41.071Z,55.40
2022-10-30T10:11:35.772Z,35.40
2022-10-30T10:14:16.225Z,61.77
2022-10-30T10:16:50.472Z,51.70
2022-10-30T10:19:33.572Z,54.60
2022-10-30T10:22:04.330Z,34.07
2022-10-30T10:24:43.338Z,60.87
2022-10-30T10:28:01.967Z,64.57
2022-10-30T10:30:46.269Z,34.53
2022-10-30T10:33:58.988Z,40.73
2022-10-30T10:36:46.039Z,31.43
2022-10-30T10:39:40.579Z,33.87
2022-10-30T10:42:33.773Z,48.57
2022-10-30T10:45:38.315Z,34.60
2022-10-30T10:48:33.858Z,57.27
2022-10-30T10:51:08.105Z,30.50
2022-10-30T10:54:05.143Z,28.17
2022-10-30T10:56:37.012Z,26.20
2022-10-30T10:59:32.532Z,31.20
2022-10-30T11:02:07.025Z,28.83
2022-10-30T11:04:42.464Z,32.87
2022-10-30T11:07:31.673Z,63.27
2022-10-30T11:10:00.251Z,68.83
2022-10-30T11:12:36.479Z,30.07
2022-10-30T11:15:19.544Z,29.73
2022-10-30T11:17:54.279Z,29.10
2022-10-30T11:20:43.464Z,31.20
2022-10-30T11:23:34.336Z,32.43
2022-10-30T11:26:05.934Z,33.07
2022-10-30T11:28:43.203Z,28.60
2022-10-30T11:31:29.248Z,30.87
2022-10-30T11:33:57.982Z,28.60
2022-10-30T11:36:27.320Z,31.23
2022-10-30T11:38:59.555Z,30.23
2022-10-30T11:41:28.057Z,31.70
2022-10-30T11:43:56.446Z,33.80
2022-10-30T11:46:25.507Z,29.67
2022-10-30T11:48:57.521Z,30.63
2022-10-30T11:51:38.687Z,39.37
2022-10-30T11:54:08.274Z,39.90
2022-10-30T11:56:37.196Z,31.70
2022-10-30T11:59:06.757Z,45.00
2022-10-30T12:01:39.892Z,62.53
2022-10-30T12:04:25.129Z,44.23
2022-10-30T12:07:30.270Z,31.80
2022-10-30T12:10:00.194Z,54.87
2022-10-30T12:12:37.348Z,36.93
2022-10-30T12:15:21.385Z,30.10
2022-10-30T12:18:01.048Z,29.67
2022-10-30T12:20:30.582Z,37.17
2022-10-30T12:22:59.669Z,49.03
2022-10-30T12:25:33.973Z,52.27
2022-10-30T12:28:15.123Z,34.20
2022-10-30T12:31:12.500Z,34.10
2022-10-30T12:33:51.103Z,40.63
2022-10-30T12:36:24.624Z,31.63
2022-10-30T12:38:52.929Z,46.10
2022-10-30T12:41:26.064Z,35.63
2022-10-30T12:44:21.778Z,32.40
2022-10-30T12:47:10.618Z,42.80
2022-10-30T12:49:45.821Z,43.33
2022-10-30T12:52:23.856Z,37.50
2022-10-30T12:55:16.894Z,43.13
2022-10-30T12:58:12.214Z,42.30
2022-10-30T13:00:49.246Z,57.33
2022-10-30T13:04:13.025Z,47.93
2022-10-30T13:07:04.129Z,41.13
2022-10-30T13:09:41.398Z,34.20
2022-10-30T13:12:19.205Z,52.17
2022-10-30T13:14:59.317Z,36.03
2022-10-30T13:17:29.549Z,37.87
2022-10-30T13:19:57.959Z,38.73
2022-10-30T13:23:07.796Z,45.60
2022-10-30T13:25:59.810Z,40.07
2022-10-30T13:28:34.654Z,42.13
2022-10-30T13:31:12.995Z,28.57
2022-10-30T13:33:58.644Z,24.83
2022-10-30T13:36:39.188Z,24.70
2022-10-30T13:39:19.980Z,19.73
2022-10-30T13:42:06.513Z,26.70
2022-10-30T13:44:40.715Z,24.40
2022-10-30T13:47:30.192Z,19.50
2022-10-30T13:50:19.000Z,17.77
2022-10-30T13:52:54.388Z,19.33
2022-10-30T13:55:22.824Z,11.83
2022-10-30T13:58:11.289Z,11.70
2022-10-30T14:01:05.648Z,12.47
2022-10-30T14:03:44.567Z,9.83
2022-10-30T14:06:32.245Z,11.73
2022-10-30T14:09:04.123Z,10.40
2022-10-30T14:11:32.515Z,14.10
2022-10-30T14:14:29.194Z,15.23
2022-10-30T14:17:14.733Z,8.97
2022-10-30T14:20:13.667Z,7.80
2022-10-30T14:22:43.149Z,9.40
2022-10-30T14:25:17.070Z,6.23
2022-10-30T14:27:57.152Z,14.77
2022-10-30T14:30:29.799Z,10.60
2022-10-30T14:32:58.338Z,12.83
2022-10-30T14:35:35.687Z,13.73
2022-10-30T14:38:10.153Z,10.17
2022-10-30T14:41:19.707Z,10.73
2022-10-30T14:44:03.001Z,12.13
2022-10-30T14:46:37.995Z,7.20
2022-10-30T14:49:29.557Z,5.47
2022-10-30T14:52:41.995Z,12.77
2022-10-30T14:55:24.878Z,8.30
2022-10-30T14:57:55.114Z,9.53
2022-10-30T15:00:26.706Z,13.43
2022-10-30T15:03:15.592Z,6.37
2022-10-30T15:05:47.028Z,7.50
2022-10-30T15:08:18.246Z,10.97
2022-10-30T15:11:12.888Z,12.47
2022-10-30T15:13:51.597Z,10.73
2022-10-30T15:16:22.004Z,8.13
2022-10-30T15:19:06.248Z,13.03
2022-10-30T15:21:42.273Z,10.93
2022-10-30T15:24:22.581Z,8.20
2022-10-30T15:27:02.402Z,11.23
2022-10-30T15:29:35.072Z,9.10
2022-10-30T15:32:06.421Z,7.13
2022-10-30T15:34:34.940Z,8.83
2022-10-30T15:37:13.515Z,5.83
2022-10-30T15:39:41.848Z,6.93
2022-10-30T15:42:11.501Z,9.50
2022-10-30T15:44:43.247Z,10.03
2022-10-30T15:47:18.067Z,13.27
2022-10-30T15:49:57.046Z,16.30
2022-10-30T15:52:30.353Z,9.67
2022-10-30T15:55:07.887Z,8.40
2022-10-30T16:00:39.352Z,8.07
2022-10-30T16:03:13.558Z,5.73
2022-10-30T16:05:42.329Z,10.27
2022-10-30T16:08:23.056Z,6.40
2022-10-30T16:10:55.296Z,12.33
2022-10-30T16:13:32.460Z,6.43
2022-10-30T16:16:03.977Z,8.73
2022-10-30T16:18:36.612Z,9.50
2022-10-30T16:21:09.544Z,7.33
2022-10-30T16:23:52.751Z,6.10
2022-10-30T16:26:26.331Z,8.57
2022-10-30T16:28:54.744Z,6.20
2022-10-30T16:31:25.147Z,7.70
2022-10-30T16:33:54.324Z,6.83
2022-10-30T16:36:23.091Z,6.23
2022-10-30T16:38:51.686Z,9.63
2022-10-30T16:41:26.553Z,11.47
2022-10-30T16:44:13.676Z,6.97
2022-10-30T16:46:51.596Z,7.23
2022-10-30T16:49:25.712Z,8.10
2022-10-30T16:51:59.167Z,6.37
2022-10-30T16:54:37.837Z,8.43
2022-10-30T16:57:16.988Z,7.23
2022-10-30T16:59:53.061Z,4.43
2022-10-30T17:02:30.700Z,10.27
2022-10-30T17:05:35.202Z,11.67
2022-10-30T17:08:06.901Z,6.80
2022-10-30T17:10:44.798Z,7.30
2022-10-30T17:13:32.074Z,9.20
2022-10-30T17:16:24.916Z,9.13
2022-10-30T17:18:55.434Z,7.80
2022-10-30T17:21:46.047Z,6.40
2022-10-30T17:24:42.443Z,8.50
2022-10-30T17:27:29.884Z,4.73
2022-10-30T17:29:58.438Z,8.70
2022-10-30T17:32:43.639Z,5.00
2022-10-30T17:35:20.274Z,6.13
2022-10-30T17:37:48.710Z,5.40
2022-10-30T17:40:18.864Z,4.80
2022-10-30T17:42:51.249Z,6.87
2022-10-30T17:45:19.629Z,7.63
2022-10-30T17:47:48.097Z,6.13
2022-10-30T17:50:16.527Z,5.53
2022-10-30T17:52:44.976Z,10.60
2022-10-30T17:55:30.425Z,8.60
2022-10-30T17:57:58.851Z,6.50
2022-10-30T18:00:27.297Z,9.67
2022-10-30T18:02:55.720Z,5.90
2022-10-30T18:05:29.812Z,7.17
2022-10-30T18:07:58.323Z,8.27
2022-10-30T18:10:26.730Z,7.63
2022-10-30T18:12:55.064Z,9.33
2022-10-30T18:15:36.665Z,9.07
2022-10-30T18:18:05.464Z,7.97
2022-10-30T18:20:34.491Z,6.83
2022-10-30T18:23:03.232Z,6.67
2022-10-30T18:25:34.576Z,7.33
2022-10-30T18:28:04.116Z,9.40
2022-10-30T18:30:32.610Z,9.77
2022-10-30T18:33:01.290Z,8.80
2022-10-30T18:35:40.622Z,6.90
2022-10-30T18:38:09.150Z,6.77
2022-10-30T18:40:37.629Z,7.10
2022-10-30T18:43:06.031Z,5.70
2022-10-30T18:45:41.791Z,7.97
2022-10-30T18:48:10.981Z,5.80
2022-10-30T18:50:39.807Z,6.73
2022-10-30T18:53:16.888Z,8.33
2022-10-30T18:55:46.149Z,8.90
2022-10-30T18:58:14.539Z,6.43
2022-10-30T19:01:10.427Z,6.63
2022-10-30T19:03:32.179Z,4.40
2022-10-30T19:06:00.564Z,6.10
2022-10-30T19:08:28.949Z,6.73
2022-10-30T19:10:59.003Z,6.07
2022-10-30T19:13:27.550Z,6.60
2022-10-30T19:16:00.327Z,7.73
2022-10-30T19:18:31.918Z,7.87
2022-10-30T19:21:05.227Z,8.73
2022-10-30T19:23:35.617Z,8.97
2022-10-30T19:26:04.040Z,7.70
2022-10-30T19:28:33.519Z,6.60
2022-10-30T19:31:02.235Z,9.70
2022-10-30T19:33:30.609Z,11.00
2022-10-30T19:36:01.853Z,10.40
2022-10-30T19:38:31.098Z,14.30
2022-10-30T19:40:59.767Z,13.30
2022-10-30T19:43:28.268Z,9.77
2022-10-30T19:45:58.796Z,10.43
2022-10-30T19:48:56.186Z,11.00
2022-10-30T19:51:15.606Z,7.33
2022-10-30T19:53:44.011Z,7.73
2022-10-30T19:56:15.056Z,9.27
2022-10-30T19:58:43.471Z,11.93
2022-10-30T20:01:14.386Z,10.63
2022-10-30T20:03:42.910Z,9.10
2022-10-30T20:06:13.672Z,12.40
2022-10-30T20:08:42.629Z,7.20
2022-10-30T20:11:11.289Z,7.20
2022-10-30T20:13:39.803Z,7.90
2022-10-30T20:16:08.741Z,7.03
2022-10-30T20:18:37.641Z,9.50
2022-10-30T20:21:11.338Z,6.93
2022-10-30T20:23:40.335Z,6.90
2022-10-30T20:26:27.682Z,9.90
2022-10-30T20:28:56.273Z,8.60
2022-10-30T20:31:24.983Z,7.67
2022-10-30T20:33:53.547Z,9.80
2022-10-30T20:36:22.036Z,10.50
2022-10-30T20:38:50.371Z,9.70
2022-10-30T20:41:24.567Z,12.10
2022-10-30T20:43:53.033Z,14.67
2022-10-30T20:46:22.179Z,10.70
2022-10-30T20:48:50.629Z,8.70
2022-10-30T20:51:19.350Z,9.17
2022-10-30T20:53:47.724Z,11.30
2022-10-30T20:56:16.270Z,12.50
2022-10-30T20:58:44.683Z,10.83
2022-10-30T21:01:14.420Z,15.53
2022-10-30T21:03:43.009Z,11.33
2022-10-30T21:06:11.429Z,9.87
2022-10-30T21:08:39.794Z,15.93
2022-10-30T21:11:09.004Z,12.37
2022-10-30T21:13:37.812Z,9.53
2022-10-30T21:16:09.354Z,8.93
2022-10-30T21:18:37.943Z,9.00
2022-10-30T21:21:09.089Z,10.63
2022-10-30T21:23:37.443Z,9.30
2022-10-30T21:26:08.323Z,16.67
2022-10-30T21:28:36.755Z,10.57
2022-10-30T21:31:11.674Z,9.90
2022-10-30T21:33:40.161Z,9.57
2022-10-30T21:36:20.786Z,11.17
2022-10-30T21:38:49.373Z,10.37
2022-10-30T21:41:22.881Z,11.60
2022-10-30T21:43:59.168Z,7.93
2022-10-30T21:46:30.580Z,11.47
2022-10-30T21:49:04.644Z,9.30
2022-10-30T21:51:33.979Z,15.03
2022-10-30T21:54:02.391Z,12.60
2022-10-30T21:56:32.215Z,16.63
2022-10-30T21:59:07.707Z,18.33
2022-10-30T22:01:37.706Z,10.70
2022-10-30T22:04:09.769Z,7.07
2022-10-30T22:06:45.730Z,11.30
2022-10-30T22:09:17.829Z,11.00
2022-10-30T22:11:46.240Z,12.23
2022-10-30T22:14:14.602Z,9.70
2022-10-30T22:16:43.055Z,10.97
2022-10-30T22:19:12.177Z,8.60
2022-10-30T22:21:40.608Z,10.03
2022-10-30T22:24:09.301Z,8.40
2022-10-30T22:26:37.660Z,11.73
2022-10-30T22:29:06.290Z,7.73
2022-10-30T22:31:34.708Z,10.80
2022-10-30T22:34:03.420Z,10.57
2022-10-30T22:36:33.817Z,12.83
2022-10-30T22:39:08.351Z,10.53
2022-10-30T22:41:38.467Z,10.77
2022-10-30T22:44:09.137Z,9.77
2022-10-30T22:46:38.051Z,11.90
2022-10-30T22:49:07.329Z,10.17
2022-10-30T22:51:38.272Z,8.63
2022-10-30T22:54:09.093Z,11.43
2022-10-30T22:56:38.917Z,9.73
2022-10-30T22:59:11.619Z,9.80
2022-10-30T23:01:41.443Z,6.70
2022-10-30T23:04:12.196Z,9.97
2022-10-30T23:06:40.684Z,9.10
2022-10-30T23:09:15.964Z,13.27
2022-10-30T23:11:44.373Z,9.97
2022-10-30T23:14:12.847Z,9.50
2022-10-30T23:16:41.319Z,13.73
2022-10-30T23:19:11.679Z,20.57
2022-10-30T23:21:40.139Z,11.57
2022-10-30T23:24:09.044Z,10.40
2022-10-30T23:26:37.592Z,8.03
2022-10-30T23:29:06.192Z,8.67
2022-10-30T23:31:36.180Z,14.47
2022-10-30T23:34:13.667Z,11.77
2022-10-30T23:36:43.243Z,6.10
2022-10-30T23:39:15.901Z,8.23
2022-10-30T23:41:45.047Z,9.63
2022-10-30T23:44:15.758Z,10.40
2022-10-30T23:46:44.710Z,8.57
2022-10-30T23:49:13.599Z,8.13
2022-10-30T23:51:41.961Z,7.90
2022-10-30T23:54:10.582Z,9.97
2022-10-30T23:56:39.059Z,7.47
2022-10-30T23:59:07.407Z,10.10
